Time;durP1;ratioP1;P1;durP2;ratioP2;P2;SDS_P1;SDS_P2;PMS_P1;PMS_P2;Temp;Humidity;BMP_temperature;BMP_pressure;BME280_temperature;BME280_humidity;BME280_pressure;Samples;Min_cycle;Max_cycle;Signal;HPM_P1;HPM_P2
2021/10/28 00:14:34;;;;;;;41.70;23.55;;;12.30;99.90;;;;;;5035898;28;49428;-74
2021/10/28 00:17:02;;;;;;;43.60;23.58;;;12.40;99.90;;;;;;5003856;28;36264;-75
2021/10/28 00:19:28;;;;;;;43.00;24.67;;;12.40;99.90;;;;;;5023029;28;46882;-74
2021/10/28 00:21:55;;;;;;;45.70;24.42;;;12.30;99.90;;;;;;5027442;28;38731;-75
2021/10/28 00:24:21;;;;;;;40.83;22.55;;;12.30;99.90;;;;;;5009315;28;38642;-75
2021/10/28 00:26:48;;;;;;;42.25;23.70;;;12.30;99.90;;;;;;5026111;28;36227;-75
2021/10/28 00:29:17;;;;;;;50.53;23.92;;;12.30;99.90;;;;;;5032597;28;39467;-75
2021/10/28 00:31:46;;;;;;;44.30;22.05;;;12.40;99.90;;;;;;5030331;28;39167;-75
2021/10/28 00:34:13;;;;;;;45.55;24.00;;;12.40;99.90;;;;;;5033788;28;39220;-75
2021/10/28 00:36:42;;;;;;;43.33;23.02;;;12.40;99.90;;;;;;5015142;28;36584;-75
2021/10/28 00:39:08;;;;;;;42.25;22.08;;;12.40;99.90;;;;;;5003243;28;37832;-76
2021/10/28 00:41:36;;;;;;;43.72;22.67;;;12.40;99.90;;;;;;5008642;28;37983;-75
2021/10/28 00:44:03;;;;;;;42.75;22.15;;;12.40;99.90;;;;;;4994214;28;38478;-77
2021/10/28 00:46:34;;;;;;;46.75;21.75;;;12.40;99.90;;;;;;5016223;28;38095;-76
2021/10/28 00:49:02;;;;;;;38.42;20.70;;;12.40;99.90;;;;;;5000959;28;39048;-75
2021/10/28 00:51:31;;;;;;;47.42;22.55;;;12.50;99.90;;;;;;5006686;28;47037;-75
2021/10/28 00:53:59;;;;;;;38.13;20.45;;;12.40;99.90;;;;;;5032649;28;37970;-75
2021/10/28 00:56:28;;;;;;;42.22;20.48;;;12.40;99.90;;;;;;4989982;28;37780;-75
2021/10/28 00:58:54;;;;;;;37.03;19.75;;;12.40;99.90;;;;;;4999480;28;37454;-75
2021/10/28 01:01:21;;;;;;;34.93;18.03;;;12.40;99.90;;;;;;5025053;28;37771;-75
2021/10/28 01:03:47;;;;;;;40.97;19.88;;;12.30;99.90;;;;;;5006466;28;38015;-75
2021/10/28 01:06:14;;;;;;;39.72;18.40;;;12.30;99.90;;;;;;5012620;28;36464;-75
2021/10/28 01:08:44;;;;;;;37.15;19.98;;;12.40;99.90;;;;;;5011365;28;38348;-75
2021/10/28 01:11:12;;;;;;;37.20;19.10;;;12.30;99.90;;;;;;5011953;28;38390;-75
2021/10/28 01:13:39;;;;;;;35.92;19.58;;;12.30;99.90;;;;;;5033112;28;39518;-75
2021/10/28 01:16:06;;;;;;;32.80;18.50;;;12.30;99.90;;;;;;5028127;28;38201;-75
2021/10/28 01:18:35;;;;;;;37.58;19.83;;;12.20;99.90;;;;;;5012338;28;38838;-75
2021/10/28 01:21:03;;;;;;;34.78;17.83;;;12.20;99.90;;;;;;5028533;28;39930;-75
2021/10/28 01:23:30;;;;;;;34.85;17.55;;;12.20;99.90;;;;;;5009354;28;47141;-75
2021/10/28 01:26:01;;;;;;;37.13;18.88;;;12.20;99.90;;;;;;5008678;28;36203;-74
2021/10/28 01:28:30;;;;;;;38.63;18.85;;;12.10;99.90;;;;;;5017866;28;47428;-75
2021/10/28 01:31:00;;;;;;;43.03;20.20;;;12.10;99.90;;;;;;5033312;28;38073;-75
2021/10/28 01:33:27;;;;;;;36.03;18.75;;;12.00;99.90;;;;;;4992223;28;39003;-75
2021/10/28 01:35:54;;;;;;;33.53;18.65;;;11.90;99.90;;;;;;5017508;28;37586;-76
2021/10/28 01:38:21;;;;;;;38.05;20.58;;;11.80;99.90;;;;;;5012016;28;38046;-75
2021/10/28 01:40:58;;;;;;;39.85;20.80;;;11.70;99.90;;;;;;5003767;28;39189;-75
2021/10/28 01:43:27;;;;;;;35.27;20.40;;;11.60;99.90;;;;;;5012145;28;38823;-75
2021/10/28 01:45:53;;;;;;;32.33;20.38;;;11.50;99.90;;;;;;5013397;28;37413;-75
2021/10/28 01:48:21;;;;;;;43.28;26.20;;;11.50;99.90;;;;;;5014962;28;38219;-76
2021/10/28 01:50:48;;;;;;;41.03;23.15;;;11.40;99.90;;;;;;5013812;28;38023;-75
2021/10/28 01:53:15;;;;;;;42.37;23.43;;;11.30;99.90;;;;;;5016325;28;38899;-75
2021/10/28 01:55:42;;;;;;;41.37;24.07;;;11.30;99.90;;;;;;5030016;28;36228;-75
2021/10/28 01:58:11;;;;;;;41.30;25.17;;;11.30;99.90;;;;;;5012698;28;40559;-75
2021/10/28 02:00:39;;;;;;;35.95;22.30;;;11.20;99.90;;;;;;5033396;28;38699;-75
2021/10/28 02:03:05;;;;;;;39.20;22.70;;;11.30;99.90;;;;;;5022266;28;39724;-76
2021/10/28 02:05:31;;;;;;;41.63;23.15;;;11.20;99.90;;;;;;5032592;28;37545;-75
2021/10/28 02:07:58;;;;;;;43.50;23.53;;;11.20;99.90;;;;;;5027744;28;39851;-75
2021/10/28 02:10:24;;;;;;;38.87;23.87;;;11.20;99.90;;;;;;5002448;28;38454;-75
2021/10/28 02:12:51;;;;;;;41.07;23.27;;;11.10;99.90;;;;;;5033382;28;38589;-75
2021/10/28 02:15:19;;;;;;;44.87;27.60;;;11.20;99.90;;;;;;5031392;28;37302;-75
2021/10/28 02:17:45;;;;;;;35.63;23.83;;;11.10;99.90;;;;;;5014848;28;39368;-75
2021/10/28 02:20:14;;;;;;;41.97;25.83;;;11.10;99.90;;;;;;5013972;28;39508;-75
2021/10/28 02:22:41;;;;;;;41.50;23.97;;;11.10;99.90;;;;;;5013210;28;38902;-75
2021/10/28 02:25:08;;;;;;;35.40;23.50;;;11.10;99.90;;;;;;5011082;28;39159;-76
2021/10/28 02:27:34;;;;;;;43.23;27.00;;;11.10;99.90;;;;;;5015823;28;39456;-75
2021/10/28 02:30:01;;;;;;;40.60;25.50;;;11.10;99.90;;;;;;5030440;28;38514;-75
2021/10/28 02:32:27;;;;;;;44.60;27.53;;;11.10;99.90;;;;;;5026375;28;39199;-75
2021/10/28 02:34:53;;;;;;;37.37;23.90;;;11.00;99.90;;;;;;5019504;28;38469;-75
2021/10/28 02:37:19;;;;;;;43.97;27.23;;;10.90;99.90;;;;;;5011776;28;39698;-75
2021/10/28 02:39:48;;;;;;;38.27;24.10;;;10.90;99.90;;;;;;5010835;28;38760;-75
2021/10/28 02:42:15;;;;;;;43.30;26.20;;;10.90;99.90;;;;;;5016990;28;38599;-75
2021/10/28 02:44:43;;;;;;;43.13;23.53;;;10.90;99.90;;;;;;5013346;28;37642;-76
2021/10/28 02:47:09;;;;;;;42.33;25.20;;;10.80;99.90;;;;;;5013107;28;39628;-76
2021/10/28 02:49:35;;;;;;;32.60;22.50;;;10.90;99.90;;;;;;5008545;28;39007;-75
2021/10/28 02:52:02;;;;;;;46.87;26.50;;;10.90;99.90;;;;;;5013954;28;38609;-76
2021/10/28 02:54:29;;;;;;;34.50;21.97;;;10.90;99.90;;;;;;5016208;28;39329;-76
2021/10/28 02:56:56;;;;;;;34.97;23.37;;;10.90;99.90;;;;;;5029179;28;38826;-75
2021/10/28 02:59:22;;;;;;;42.90;25.73;;;10.80;99.90;;;;;;5036695;28;38744;-75
2021/10/28 03:01:51;;;;;;;33.97;21.70;;;10.80;99.90;;;;;;5000968;28;39934;-75
2021/10/28 03:04:19;;;;;;;32.23;22.53;;;10.80;99.90;;;;;;5015127;28;38238;-76
2021/10/28 03:06:47;;;;;;;32.23;22.40;;;10.80;99.90;;;;;;5008280;28;39257;-75
2021/10/28 03:09:16;;;;;;;31.33;21.17;;;10.70;99.90;;;;;;5007578;28;38811;-76
2021/10/28 03:11:45;;;;;;;29.73;21.30;;;10.70;99.90;;;;;;5029566;28;39534;-74
2021/10/28 03:14:13;;;;;;;39.73;26.03;;;10.60;99.90;;;;;;5014726;28;38280;-75
2021/10/28 03:27:37;;;;;;;48.47;26.60;;;10.60;99.90;;;;;;5036579;28;49698;-75
2021/10/28 03:30:05;;;;;;;39.93;24.00;;;10.50;99.90;;;;;;5028092;28;39708;-75
2021/10/28 03:32:31;;;;;;;46.93;26.10;;;10.50;99.90;;;;;;5024637;28;38710;-75
2021/10/28 03:34:58;;;;;;;39.40;25.27;;;10.50;99.90;;;;;;5012181;28;38564;-75
2021/10/28 03:37:35;;;;;;;47.93;27.70;;;10.40;99.90;;;;;;5039731;28;38960;-76
2021/10/28 03:45:33;;;;;;;35.87;22.60;;;10.20;99.90;;;;;;5040398;28;37243;-76
2021/10/28 04:31:01;;;;;;;29.87;20.93;;;10.40;99.90;;;;;;5008971;28;39335;-75
2021/10/28 04:33:28;;;;;;;37.23;24.40;;;10.40;99.90;;;;;;5022238;28;39569;-75
2021/10/28 04:35:54;;;;;;;38.13;23.83;;;10.40;99.90;;;;;;5011514;28;38599;-75
2021/10/28 04:38:21;;;;;;;43.77;25.23;;;10.40;99.90;;;;;;5006692;28;37972;-75
2021/10/28 04:40:47;;;;;;;32.83;21.77;;;10.40;99.90;;;;;;5015465;28;38976;-75
2021/10/28 04:43:13;;;;;;;30.87;19.43;;;10.40;99.90;;;;;;4993923;28;39259;-75
2021/10/28 04:45:39;;;;;;;28.40;19.90;;;10.40;99.90;;;;;;5004996;28;40137;-75
2021/10/28 04:48:10;;;;;;;44.90;25.10;;;10.40;99.90;;;;;;5013179;28;37767;-75
2021/10/28 04:50:36;;;;;;;29.70;20.43;;;10.40;99.90;;;;;;5029927;28;38500;-75
2021/10/28 04:53:02;;;;;;;27.43;19.50;;;10.40;99.90;;;;;;5028304;28;38543;-75
2021/10/28 04:55:28;;;;;;;34.53;20.93;;;10.40;99.90;;;;;;5031291;28;38861;-75
2021/10/28 04:57:54;;;;;;;35.63;23.10;;;10.40;99.90;;;;;;5038284;28;38463;-75
2021/10/28 05:00:21;;;;;;;29.13;19.23;;;10.40;99.90;;;;;;5029953;28;38891;-75
2021/10/28 05:02:47;;;;;;;35.20;23.40;;;10.40;99.90;;;;;;5016415;28;38932;-75
2021/10/28 05:05:13;;;;;;;30.30;19.67;;;10.40;99.90;;;;;;5021264;28;38516;-75
2021/10/28 05:07:39;;;;;;;24.73;16.70;;;10.40;99.90;;;;;;5033950;28;38112;-75
2021/10/28 05:10:05;;;;;;;31.50;18.90;;;10.50;99.90;;;;;;5012329;28;39831;-75
2021/10/28 05:12:31;;;;;;;35.97;21.17;;;10.50;99.90;;;;;;4998173;28;40613;-75
2021/10/28 05:14:57;;;;;;;34.47;20.90;;;10.50;99.90;;;;;;5002453;28;38794;-75
2021/10/28 05:17:23;;;;;;;25.30;17.50;;;10.50;99.90;;;;;;4999842;28;38174;-75
2021/10/28 05:19:49;;;;;;;24.73;16.77;;;10.40;99.90;;;;;;4999496;28;42789;-75
2021/10/28 05:22:17;;;;;;;27.33;17.30;;;10.40;99.90;;;;;;5031108;28;39804;-75
2021/10/28 05:24:44;;;;;;;34.30;22.50;;;10.40;99.90;;;;;;5008491;28;40198;-75
2021/10/28 05:27:10;;;;;;;22.73;16.73;;;10.40;99.90;;;;;;5032847;28;37232;-75
2021/10/28 05:29:36;;;;;;;23.90;18.20;;;10.30;99.90;;;;;;5027691;28;38757;-75
2021/10/28 05:32:02;;;;;;;28.67;18.57;;;10.30;99.90;;;;;;5030190;28;39576;-75
2021/10/28 05:34:28;;;;;;;25.97;17.33;;;10.30;99.90;;;;;;5019960;28;47213;-75
2021/10/28 05:36:55;;;;;;;23.43;15.43;;;10.30;99.90;;;;;;5028555;28;37024;-75
2021/10/28 05:39:21;;;;;;;27.87;16.90;;;10.30;99.90;;;;;;5032005;28;38854;-76
2021/10/28 05:41:47;;;;;;;24.53;16.40;;;10.30;99.90;;;;;;5026564;28;39676;-75
2021/10/28 05:44:14;;;;;;;23.33;16.80;;;10.30;99.90;;;;;;5035297;28;38301;-75
2021/10/28 05:46:40;;;;;;;23.77;15.90;;;10.30;99.90;;;;;;5009719;28;38031;-75
2021/10/28 05:49:06;;;;;;;27.50;14.33;;;10.30;99.90;;;;;;5028865;28;38918;-76
2021/10/28 05:51:32;;;;;;;24.60;17.47;;;10.30;99.90;;;;;;5019715;28;40642;-75
2021/10/28 05:53:59;;;;;;;33.27;20.03;;;10.30;99.90;;;;;;5015000;28;39402;-75
2021/10/28 05:56:25;;;;;;;31.13;18.30;;;10.30;99.90;;;;;;5007872;28;39671;-75
2021/10/28 05:58:51;;;;;;;22.77;13.87;;;10.30;99.90;;;;;;5020445;28;39910;-76
2021/10/28 06:01:17;;;;;;;28.00;16.50;;;10.30;99.90;;;;;;5011338;28;39807;-76
2021/10/28 06:03:43;;;;;;;35.73;20.00;;;10.30;99.90;;;;;;5021616;28;40339;-76
2021/10/28 06:06:09;;;;;;;30.50;18.37;;;10.40;99.90;;;;;;5036789;28;37252;-76
2021/10/28 06:08:36;;;;;;;29.07;16.27;;;10.50;99.90;;;;;;5039219;28;39575;-73
2021/10/28 06:11:02;;;;;;;29.70;16.57;;;10.50;99.90;;;;;;5012817;28;38940;-75
2021/10/28 06:13:29;;;;;;;28.17;16.83;;;10.60;99.90;;;;;;5003854;28;37835;-74
2021/10/28 06:15:56;;;;;;;25.13;16.67;;;10.60;99.90;;;;;;5010673;28;38720;-74
2021/10/28 06:20:50;;;;;;;31.87;16.87;;;10.60;99.90;;;;;;5030645;28;39137;-75
2021/10/28 06:23:17;;;;;;;28.13;16.17;;;10.60;99.90;;;;;;5031948;28;38775;-75
2021/10/28 06:25:43;;;;;;;25.00;15.90;;;10.60;99.90;;;;;;5032351;28;37194;-75
2021/10/28 06:28:09;;;;;;;24.90;15.63;;;10.60;99.90;;;;;;5026721;28;38964;-75
2021/10/28 06:30:35;;;;;;;33.40;17.10;;;10.60;99.90;;;;;;5010592;28;37370;-73
2021/10/28 06:33:10;;;;;;;35.60;19.20;;;10.60;99.90;;;;;;5002442;28;39070;-73
2021/10/28 06:35:37;;;;;;;22.67;15.77;;;10.70;99.90;;;;;;5020110;28;37462;-74
2021/10/28 06:38:04;;;;;;;25.33;16.17;;;10.70;99.90;;;;;;5006646;28;39951;-74
2021/10/28 06:40:31;;;;;;;28.77;16.90;;;10.70;99.90;;;;;;5030843;28;38901;-73
2021/10/28 06:42:57;;;;;;;26.00;16.47;;;10.80;99.90;;;;;;5029906;28;37842;-74
2021/10/28 06:45:23;;;;;;;28.47;17.87;;;10.80;99.90;;;;;;5032359;28;37264;-73
2021/10/28 06:47:49;;;;;;;24.37;15.63;;;10.80;99.90;;;;;;5011871;28;40397;-74
2021/10/28 06:50:19;;;;;;;30.67;15.77;;;10.80;99.90;;;;;;5036668;28;39353;-73
2021/10/28 07:03:27;;;;;;;27.63;16.53;;;10.80;99.90;;;;;;5032118;28;48102;-71
2021/10/28 07:05:56;;;;;;;24.87;15.67;;;10.70;99.90;;;;;;5033781;28;37725;-72
2021/10/28 07:08:23;;;;;;;28.87;17.43;;;10.80;99.90;;;;;;5033564;28;38915;-72
2021/10/28 07:10:52;;;;;;;25.70;15.70;;;10.80;99.90;;;;;;5030755;28;40333;-71
2021/10/28 07:13:22;;;;;;;28.33;17.73;;;10.80;99.90;;;;;;5035257;28;38679;-72
2021/10/28 07:16:05;;;;;;;24.97;16.17;;;10.80;99.90;;;;;;5033825;28;36730;-72
2021/10/28 07:18:48;;;;;;;31.67;18.33;;;10.90;99.90;;;;;;5013456;28;47371;-71
2021/10/28 07:27:10;;;;;;;34.57;20.63;;;10.90;99.90;;;;;;5016798;28;49006;-72
2021/10/28 07:59:25;;;;;;;29.07;19.40;;;11.30;99.90;;;;;;5034987;28;37004;-72
2021/10/28 08:05:10;;;;;;;33.30;19.90;;;11.50;99.90;;;;;;5032001;28;48999;-71
2021/10/28 08:21:28;;;;;;;29.97;19.67;;;11.90;99.90;;;;;;5032510;28;38355;-71
2021/10/28 08:29:45;;;;;;;30.13;18.87;;;12.20;99.90;;;;;;5017382;28;49003;-72
2021/10/28 08:32:12;;;;;;;28.93;18.67;;;12.30;99.90;;;;;;5015423;28;38089;-72
2021/10/28 08:34:39;;;;;;;24.93;17.13;;;12.30;99.90;;;;;;5033811;28;38888;-72
2021/10/28 08:37:13;;;;;;;30.60;18.37;;;12.40;99.90;;;;;;5035310;28;39249;-73
2021/10/28 08:39:49;;;;;;;31.30;18.63;;;12.40;99.90;;;;;;5030706;28;38315;-72
2021/10/28 08:42:22;;;;;;;25.53;17.10;;;12.50;99.90;;;;;;5026736;28;37536;-72
2021/10/28 08:44:51;;;;;;;23.30;16.23;;;12.50;99.90;;;;;;5014392;28;37956;-72
2021/10/28 08:47:18;;;;;;;26.57;18.63;;;12.60;99.90;;;;;;5013396;28;39594;-72
2021/10/28 08:49:54;;;;;;;26.70;17.88;;;12.60;99.90;;;;;;5016283;28;37444;-72
2021/10/28 09:00:22;;;;;;;26.97;17.53;;;12.80;99.90;;;;;;5032436;28;38877;-73
2021/10/28 09:26:59;;;;;;;23.75;16.17;;;13.50;99.90;;;;;;4945870;28;48318;-72
2021/10/28 09:34:37;;;;;;;24.02;15.45;;;13.70;99.90;;;;;;5039945;28;38685;-72
2021/10/28 09:43:43;;;;;;;19.17;13.57;;;14.00;99.90;;;;;;5040695;28;39441;-73
2021/10/28 09:52:18;;;;;;;20.23;13.00;;;14.20;99.90;;;;;;5023599;28;38866;-73
2021/10/28 10:00:09;;;;;;;21.02;12.07;;;14.40;99.90;;;;;;5026386;28;38117;-72
2021/10/28 10:02:38;;;;;;;19.05;12.63;;;14.60;99.90;;;;;;5016976;28;38548;-73
2021/10/28 10:05:06;;;;;;;22.63;12.38;;;14.60;99.90;;;;;;5043299;28;39009;-73
2021/10/28 10:07:33;;;;;;;15.88;11.82;;;14.70;99.90;;;;;;5014101;28;48496;-73
2021/10/28 10:09:59;;;;;;;23.02;12.63;;;14.70;99.90;;;;;;5021987;28;36255;-73
2021/10/28 10:12:27;;;;;;;17.58;10.80;;;14.80;99.90;;;;;;5009548;28;37514;-73
2021/10/28 10:14:54;;;;;;;21.33;11.60;;;14.80;99.90;;;;;;5010604;28;37604;-73
2021/10/28 10:17:20;;;;;;;15.45;11.23;;;14.90;99.90;;;;;;5009081;28;38317;-73
2021/10/28 10:19:51;;;;;;;16.33;11.73;;;14.90;99.90;;;;;;5023077;28;38088;-72
2021/10/28 10:25:03;;;;;;;15.75;11.07;;;15.00;99.90;;;;;;5043000;28;39815;-73
2021/10/28 11:05:27;;;;;;;17.95;10.45;;;15.90;99.90;;;;;;5037491;28;49242;-73
2021/10/28 12:27:55;;;;;;;8.57;6.53;;;17.40;99.90;;;;;;5010130;28;49275;-74
2021/10/28 12:43:29;;;;;;;11.13;6.95;;;17.30;99.90;;;;;;5013658;28;48672;-74
2021/10/28 12:46:14;;;;;;;10.25;5.88;;;17.70;99.90;;;;;;5010616;28;38726;-72
2021/10/28 13:49:34;;;;;;;8.50;5.07;;;17.70;99.90;;;;;;5010468;28;38740;-73
2021/10/28 15:35:25;;;;;;;5.97;3.83;;;16.70;99.90;;;;;;5012301;28;40084;-73
2021/10/28 15:38:04;;;;;;;7.50;3.78;;;16.60;99.90;;;;;;5016477;28;37795;-73
2021/10/28 15:41:28;;;;;;;8.95;3.78;;;16.50;99.90;;;;;;5009668;28;47406;-73
2021/10/28 15:56:48;;;;;;;9.18;4.28;;;16.30;99.90;;;;;;5011415;28;38784;-72
2021/10/28 16:23:43;;;;;;;9.98;4.47;;;15.50;99.90;;;;;;5016038;28;48915;-73
2021/10/28 16:26:09;;;;;;;6.35;3.95;;;15.40;99.90;;;;;;5012131;28;38049;-73
2021/10/28 16:28:35;;;;;;;6.40;4.22;;;15.40;99.90;;;;;;5018502;28;39374;-73
2021/10/28 16:31:02;;;;;;;5.85;4.05;;;15.40;99.90;;;;;;5008210;28;38373;-74
2021/10/28 16:33:28;;;;;;;5.88;3.72;;;15.30;99.90;;;;;;5009635;28;39348;-73
2021/10/28 16:35:54;;;;;;;7.45;3.65;;;15.20;99.90;;;;;;5009833;28;38908;-72
2021/10/28 16:38:23;;;;;;;9.80;4.80;;;15.10;99.90;;;;;;5030302;28;38734;-73
2021/10/28 16:40:49;;;;;;;8.32;4.80;;;15.10;99.90;;;;;;5017743;28;37594;-73
2021/10/28 16:43:16;;;;;;;12.38;5.00;;;15.00;99.90;;;;;;5027863;28;37427;-73
2021/10/28 16:45:46;;;;;;;6.80;4.68;;;14.90;99.90;;;;;;5014787;28;38690;-72
2021/10/28 16:48:12;;;;;;;7.68;4.60;;;14.90;99.90;;;;;;5033564;28;38860;-72
2021/10/28 16:50:39;;;;;;;5.93;3.80;;;14.90;99.90;;;;;;5036014;28;39203;-73
2021/10/28 16:53:05;;;;;;;7.20;4.30;;;15.00;99.90;;;;;;5038484;28;36875;-73
2021/10/28 16:55:32;;;;;;;6.55;4.00;;;15.00;99.90;;;;;;5025998;28;39611;-73
2021/10/28 16:57:58;;;;;;;9.02;4.25;;;14.80;99.90;;;;;;5033355;28;39442;-73
2021/10/28 17:00:24;;;;;;;6.65;4.18;;;14.80;99.90;;;;;;5019038;28;37087;-73
2021/10/28 17:02:50;;;;;;;6.88;4.22;;;14.80;99.90;;;;;;5024004;28;36667;-73
2021/10/28 17:05:16;;;;;;;6.55;4.28;;;14.80;99.90;;;;;;5013811;28;37668;-73
2021/10/28 17:07:43;;;;;;;6.28;4.75;;;14.70;99.90;;;;;;5025206;28;39056;-73
2021/10/28 17:10:10;;;;;;;7.75;5.03;;;14.60;99.90;;;;;;5022891;28;37632;-73
2021/10/28 17:12:36;;;;;;;7.47;4.15;;;14.60;99.90;;;;;;5037545;28;37939;-72
2021/10/28 17:15:06;;;;;;;8.07;5.40;;;14.50;99.90;;;;;;5037674;28;38835;-73
2021/10/28 17:17:32;;;;;;;8.52;5.35;;;14.50;99.90;;;;;;5038741;28;47363;-72
2021/10/28 17:20:05;;;;;;;8.00;6.00;;;14.40;99.90;;;;;;5027992;28;38325;-73
2021/10/28 17:22:35;;;;;;;8.43;5.25;;;14.30;99.90;;;;;;5021602;28;47353;-72
2021/10/28 17:25:04;;;;;;;9.02;5.43;;;14.30;99.90;;;;;;5037116;28;39033;-72
2021/10/28 17:27:31;;;;;;;9.88;5.80;;;14.30;99.90;;;;;;5034887;28;48647;-73
2021/10/28 17:29:57;;;;;;;13.32;5.97;;;14.40;99.90;;;;;;5028455;28;38386;-72
2021/10/28 17:32:25;;;;;;;15.82;7.80;;;14.30;99.90;;;;;;5006873;28;36255;-72
2021/10/28 17:34:51;;;;;;;11.10;6.93;;;14.30;99.90;;;;;;5007475;28;35752;-73
2021/10/28 17:37:17;;;;;;;9.63;6.57;;;14.30;99.90;;;;;;5043911;28;38949;-73
2021/10/28 17:39:43;;;;;;;9.30;7.50;;;14.30;99.90;;;;;;5011808;28;36900;-72
2021/10/28 17:42:09;;;;;;;9.02;6.05;;;14.30;99.90;;;;;;5011142;28;36216;-72
2021/10/28 17:44:38;;;;;;;8.55;6.40;;;14.30;99.90;;;;;;5014831;28;38525;-72
2021/10/28 17:47:05;;;;;;;9.77;5.18;;;14.20;99.90;;;;;;5011817;28;38602;-73
2021/10/28 17:49:32;;;;;;;8.52;5.05;;;14.30;99.90;;;;;;5012248;28;37427;-72
2021/10/28 17:51:58;;;;;;;8.77;6.10;;;14.30;99.90;;;;;;5034479;28;38130;-73
2021/10/28 17:54:25;;;;;;;6.13;4.43;;;14.30;99.90;;;;;;5004057;28;38730;-77
2021/10/28 17:56:51;;;;;;;7.63;4.50;;;14.30;99.90;;;;;;5014116;28;37555;-72
2021/10/28 17:59:18;;;;;;;8.45;4.78;;;14.20;99.90;;;;;;5027150;28;40285;-72
2021/10/28 18:01:44;;;;;;;8.77;4.90;;;14.10;99.90;;;;;;4999325;28;37457;-72
2021/10/28 18:04:10;;;;;;;7.25;4.82;;;14.10;99.90;;;;;;5015517;28;39166;-73
2021/10/28 18:06:36;;;;;;;7.50;4.95;;;14.00;99.90;;;;;;5014691;28;38575;-72
2021/10/28 18:09:05;;;;;;;7.93;5.20;;;14.00;99.90;;;;;;5037131;28;38157;-73
2021/10/28 18:11:32;;;;;;;7.90;5.28;;;14.00;99.90;;;;;;5013760;28;38064;-72
2021/10/28 18:13:59;;;;;;;7.03;5.63;;;14.00;99.90;;;;;;5028361;28;39271;-72
2021/10/28 18:16:26;;;;;;;6.72;4.90;;;14.00;99.90;;;;;;5012762;28;39460;-72
2021/10/28 18:18:54;;;;;;;8.40;5.65;;;14.00;99.90;;;;;;5039656;28;39441;-72
2021/10/28 18:21:24;;;;;;;7.53;5.63;;;14.00;99.90;;;;;;5012348;28;38679;-72
2021/10/28 18:23:51;;;;;;;8.43;5.60;;;13.90;99.90;;;;;;5032255;28;37985;-72
2021/10/28 18:26:19;;;;;;;11.30;6.28;;;13.90;99.90;;;;;;5041849;28;38871;-72
2021/10/28 18:28:47;;;;;;;8.30;5.50;;;13.90;99.90;;;;;;5032318;28;39415;-72
2021/10/28 18:31:13;;;;;;;8.05;5.93;;;13.80;99.90;;;;;;5034393;28;36991;-73
2021/10/28 18:33:41;;;;;;;7.63;5.65;;;13.90;99.90;;;;;;5043218;28;39614;-73
2021/10/28 18:36:09;;;;;;;10.13;5.43;;;13.90;99.90;;;;;;5016276;28;39689;-73
2021/10/28 18:38:36;;;;;;;8.40;5.57;;;13.80;99.90;;;;;;5044167;28;39409;-73
2021/10/28 18:41:03;;;;;;;9.10;5.95;;;13.80;99.90;;;;;;5024258;28;34563;-73
2021/10/28 18:43:31;;;;;;;8.27;6.47;;;13.80;99.90;;;;;;5013938;28;39877;-72
2021/10/28 18:45:57;;;;;;;9.32;6.18;;;13.80;99.90;;;;;;5027780;28;39710;-72
2021/10/28 18:48:25;;;;;;;10.18;6.72;;;13.70;99.90;;;;;;5025726;28;39834;-73
2021/10/28 18:50:53;;;;;;;9.00;6.45;;;13.80;99.90;;;;;;5032667;28;37955;-73
2021/10/28 18:53:19;;;;;;;9.95;6.50;;;13.70;99.90;;;;;;5017608;28;39604;-73
2021/10/28 18:55:46;;;;;;;9.48;6.65;;;13.70;99.90;;;;;;5040921;28;39250;-73
2021/10/28 18:58:12;;;;;;;10.40;7.25;;;13.70;99.90;;;;;;5021960;28;38816;-72
2021/10/28 19:00:38;;;;;;;10.82;6.63;;;13.70;99.90;;;;;;5033562;28;37215;-73
2021/10/28 19:03:05;;;;;;;15.48;7.28;;;13.70;99.90;;;;;;5018073;28;40604;-73
2021/10/28 19:05:32;;;;;;;11.95;7.90;;;13.70;99.90;;;;;;5020006;28;39065;-72
2021/10/28 19:07:59;;;;;;;22.02;11.90;;;13.60;99.90;;;;;;5031192;28;38046;-73
2021/10/28 19:10:25;;;;;;;20.23;11.73;;;13.60;99.90;;;;;;5016975;28;38086;-72
2021/10/28 19:12:51;;;;;;;14.27;10.20;;;13.50;99.90;;;;;;5038684;28;38885;-73
2021/10/28 19:15:18;;;;;;;8.85;6.63;;;13.50;99.90;;;;;;5021138;28;39971;-73
2021/10/28 19:17:50;;;;;;;10.25;7.10;;;13.60;99.90;;;;;;5045725;28;38488;-73
2021/10/28 19:20:16;;;;;;;12.63;7.45;;;13.60;99.90;;;;;;5013551;28;37606;-73
2021/10/28 19:22:42;;;;;;;11.75;7.65;;;13.50;99.90;;;;;;5011570;28;37821;-73
2021/10/28 19:25:10;;;;;;;11.88;6.80;;;13.50;99.90;;;;;;4998412;28;39178;-73
2021/10/28 19:27:37;;;;;;;9.38;6.30;;;13.50;99.90;;;;;;5046512;28;38628;-73
2021/10/28 19:32:48;;;;;;;13.18;6.85;;;13.40;99.90;;;;;;5038586;28;48819;-73
2021/10/28 19:35:15;;;;;;;9.68;6.85;;;13.50;99.90;;;;;;5018422;28;39197;-72
2021/10/28 19:37:49;;;;;;;10.63;7.13;;;13.50;99.90;;;;;;5019357;28;38111;-72
2021/10/28 19:40:32;;;;;;;9.88;6.50;;;13.50;99.90;;;;;;5012112;28;36402;-73
2021/10/28 19:48:13;;;;;;;11.10;6.70;;;13.40;99.90;;;;;;5031437;28;38015;-72
2021/10/28 19:50:39;;;;;;;9.82;6.90;;;13.30;99.90;;;;;;5009276;28;35831;-73
2021/10/28 19:53:05;;;;;;;10.77;7.15;;;13.40;99.90;;;;;;5034654;28;38442;-73
2021/10/28 19:55:31;;;;;;;11.85;6.70;;;13.40;99.90;;;;;;5025227;28;39849;-72
2021/10/28 19:57:58;;;;;;;8.93;7.13;;;13.40;99.90;;;;;;5025515;28;38671;-72
2021/10/28 20:21:26;;;;;;;11.45;6.80;;;13.10;99.90;;;;;;5030706;28;38971;-73
2021/10/28 20:23:53;;;;;;;9.98;6.47;;;13.10;99.90;;;;;;5032412;28;40638;-73
2021/10/28 20:26:20;;;;;;;8.80;7.07;;;13.10;99.90;;;;;;5034302;28;39910;-73
2021/10/28 20:28:48;;;;;;;12.05;7.65;;;13.10;99.90;;;;;;5005608;28;39341;-75
2021/10/28 20:31:19;;;;;;;11.43;7.13;;;13.10;99.90;;;;;;5018353;28;37083;-75
2021/10/28 20:34:02;;;;;;;7.85;6.32;;;13.10;99.90;;;;;;5006449;28;39991;-75
2021/10/28 20:39:01;;;;;;;15.57;6.95;;;13.10;99.90;;;;;;5037484;28;38505;-74
2021/10/28 20:41:27;;;;;;;9.10;6.75;;;13.10;99.90;;;;;;5011806;28;48297;-74
2021/10/28 20:43:56;;;;;;;8.93;6.43;;;13.10;99.90;;;;;;5015101;28;38799;-74
2021/10/28 20:46:24;;;;;;;10.02;6.72;;;13.00;99.90;;;;;;5008941;28;37637;-74
2021/10/28 20:48:52;;;;;;;9.40;6.88;;;13.00;99.90;;;;;;5013015;28;37464;-74
2021/10/28 20:51:19;;;;;;;11.30;6.85;;;13.00;99.90;;;;;;5030339;28;38069;-75
2021/10/28 20:53:46;;;;;;;12.20;7.28;;;13.00;99.90;;;;;;5009221;28;37591;-74
2021/10/28 20:56:12;;;;;;;8.75;6.93;;;13.10;99.90;;;;;;5003884;28;37500;-74
2021/10/28 20:58:38;;;;;;;11.43;6.93;;;13.10;99.90;;;;;;5007835;28;39348;-74
2021/10/28 21:01:06;;;;;;;10.07;6.43;;;13.10;99.90;;;;;;5005395;28;38379;-75
2021/10/28 21:03:32;;;;;;;10.48;6.55;;;13.10;99.90;;;;;;5010761;28;39024;-74
2021/10/28 21:06:00;;;;;;;11.05;6.97;;;13.10;99.90;;;;;;5007955;28;38802;-74
2021/10/28 21:08:27;;;;;;;9.27;6.82;;;13.10;99.90;;;;;;5013852;28;48387;-75
2021/10/28 21:10:54;;;;;;;8.23;6.85;;;13.10;99.90;;;;;;5009474;28;37552;-74
2021/10/28 21:13:22;;;;;;;11.25;6.88;;;13.20;99.90;;;;;;4999326;28;39975;-74
2021/10/28 21:15:48;;;;;;;8.68;6.53;;;13.10;99.90;;;;;;5009563;28;39574;-74
2021/10/28 21:18:14;;;;;;;11.77;6.70;;;13.20;99.90;;;;;;5011889;28;37088;-75
2021/10/28 21:20:40;;;;;;;8.35;6.10;;;13.20;99.90;;;;;;5027891;28;37972;-74
2021/10/28 21:23:07;;;;;;;8.18;6.15;;;13.20;99.90;;;;;;5011729;28;39403;-74
2021/10/28 21:25:33;;;;;;;7.50;6.32;;;13.20;99.90;;;;;;5024398;28;39003;-74
2021/10/28 21:27:59;;;;;;;8.77;6.50;;;13.20;99.90;;;;;;5025835;28;36877;-73
2021/10/28 21:30:25;;;;;;;10.80;6.93;;;13.20;99.90;;;;;;5013159;28;37645;-74
2021/10/28 21:32:51;;;;;;;10.73;6.38;;;13.20;99.90;;;;;;5028258;28;38916;-74
2021/10/28 21:35:17;;;;;;;9.32;6.30;;;13.10;99.90;;;;;;5012351;28;39004;-74
2021/10/28 21:37:45;;;;;;;10.32;6.68;;;13.10;99.90;;;;;;5018300;28;39095;-73
2021/10/28 21:40:15;;;;;;;11.40;6.40;;;13.00;99.90;;;;;;5007159;28;37494;-74
2021/10/28 21:42:42;;;;;;;7.95;6.30;;;13.00;99.90;;;;;;5010576;28;38770;-74
2021/10/28 21:45:14;;;;;;;10.25;6.90;;;13.00;99.90;;;;;;5013310;28;38701;-75
2021/10/28 21:47:40;;;;;;;6.97;6.28;;;13.00;99.90;;;;;;5027598;28;39288;-74
2021/10/28 21:50:09;;;;;;;8.27;6.97;;;12.90;99.90;;;;;;5011719;28;37042;-74
2021/10/28 21:52:40;;;;;;;8.30;7.22;;;12.90;99.90;;;;;;5028932;28;39714;-74
2021/10/28 22:03:17;;;;;;;13.75;7.30;;;12.80;99.90;;;;;;5033588;28;40259;-74
2021/10/28 22:24:52;;;;;;;13.63;7.07;;;12.60;99.90;;;;;;5035781;28;39203;-74
2021/10/28 22:27:24;;;;;;;7.70;6.88;;;12.50;99.90;;;;;;5011267;28;37727;-74
2021/10/28 22:29:51;;;;;;;13.52;8.18;;;12.50;99.90;;;;;;5034561;28;38264;-74